Time;durP1;ratioP1;P1;durP2;ratioP2;P2;SDS_P1;SDS_P2;PMS_P1;PMS_P2;Temp;Humidity;BMP_temperature;BMP_pressure;BME280_temperature;BME280_humidity;BME280_pressure;Samples;Min_cycle;Max_cycle;Signal;HPM_P1;HPM_P2
2022/07/23 00:00:43;;;;;;;24.55;12.25;;;;;;;22.05;63.99;96128.16;2064485;28;20053;-44
2022/07/23 00:01:44;;;;;;;23.50;12.88;;;;;;;21.47;63.48;96126.34;2064602;28;20050;-46
2022/07/23 00:02:45;;;;;;;27.35;12.32;;;;;;;20.99;70.79;96127.00;2064293;28;20042;-44
2022/07/23 00:03:46;;;;;;;21.85;13.52;;;;;;;20.71;69.88;96121.44;2048844;29;20047;-40
2022/07/23 00:04:48;;;;;;;19.52;13.80;;;;;;;20.31;72.32;96122.16;2041185;28;20447;-43
2022/07/23 00:05:49;;;;;;;15.50;13.68;;;;;;;20.04;74.41;96128.78;2057138;28;20472;-43
2022/07/23 00:06:50;;;;;;;17.10;13.50;;;;;;;19.82;76.72;96120.97;2065170;28;20058;-43
2022/07/23 00:07:52;;;;;;;18.92;13.43;;;;;;;19.74;77.01;96121.59;2056565;28;20628;-43
2022/07/23 00:08:53;;;;;;;19.77;13.55;;;;;;;19.70;78.50;96119.34;2056429;28;20050;-41
2022/07/23 00:09:54;;;;;;;17.15;12.05;;;;;;;19.63;76.24;96123.44;2056781;28;20059;-43
2022/07/23 00:10:55;;;;;;;19.50;14.35;;;;;;;19.25;80.67;96127.34;2064635;28;20551;-44
2022/07/23 00:11:57;;;;;;;20.08;14.68;;;;;;;19.06;81.53;96139.34;2072337;28;20423;-42
2022/07/23 00:12:58;;;;;;;18.23;13.85;;;;;;;18.99;81.38;96140.78;2064324;28;20061;-41
2022/07/23 00:13:59;;;;;;;17.10;14.77;;;;;;;18.97;81.66;96142.69;2056745;28;20055;-44
2022/07/23 00:15:01;;;;;;;19.30;14.88;;;;;;;18.90;83.49;96147.59;2064316;28;20081;-43
2022/07/23 00:16:02;;;;;;;18.02;13.90;;;;;;;18.85;82.63;96157.66;2064714;28;20536;-42
2022/07/23 00:17:03;;;;;;;22.50;16.35;;;;;;;18.79;86.05;96168.66;2064606;28;20062;-42
2022/07/23 00:18:04;;;;;;;21.42;13.63;;;;;;;18.79;83.60;96173.06;2064548;28;20524;-41
2022/07/23 00:19:06;;;;;;;17.70;14.02;;;;;;;18.89;83.96;96184.53;2056017;28;20575;-44
2022/07/23 00:20:07;;;;;;;19.85;14.50;;;;;;;18.80;84.98;96207.16;2064703;28;20050;-42
2022/07/23 00:21:08;;;;;;;23.35;12.27;;;;;;;19.02;80.38;96218.66;2065037;28;20038;-41
2022/07/23 00:22:10;;;;;;;15.25;11.38;;;;;;;19.24;77.30;96209.91;2056030;28;20058;-45
2022/07/23 00:23:11;;;;;;;15.05;10.75;;;;;;;19.30;74.44;96202.38;2055937;28;20426;-43
2022/07/23 00:24:12;;;;;;;17.55;11.93;;;;;;;19.26;77.41;96218.53;2040343;29;20052;-44
2022/07/23 00:25:14;;;;;;;13.73;10.00;;;;;;;19.23;75.77;96205.63;2048591;28;20526;-42
2022/07/23 00:26:15;;;;;;;17.73;13.13;;;;;;;19.08;80.95;96220.78;2064411;28;20050;-39
2022/07/23 00:27:16;;;;;;;17.70;11.57;;;;;;;19.00;78.93;96217.94;2063842;28;20811;-44
2022/07/23 00:28:18;;;;;;;16.58;11.85;;;;;;;18.97;78.21;96223.44;2057031;28;20054;-42
2022/07/23 00:29:19;;;;;;;12.27;10.15;;;;;;;19.00;77.13;96216.13;2063989;28;20058;-41
2022/07/23 00:30:21;;;;;;;16.00;10.48;;;;;;;18.94;76.54;96211.34;2064994;28;20520;-43
2022/07/23 00:31:22;;;;;;;16.88;11.35;;;;;;;19.00;76.04;96212.66;2056339;28;20053;-45
2022/07/23 00:32:23;;;;;;;11.25;9.65;;;;;;;18.99;76.04;96197.84;2056904;28;20054;-42
2022/07/23 00:33:24;;;;;;;14.05;10.70;;;;;;;19.10;76.20;96203.09;2063956;28;20042;-44
2022/07/23 00:34:26;;;;;;;16.45;11.00;;;;;;;19.03;77.89;96208.03;2064903;28;20042;-39
2022/07/23 00:35:29;;;;;;;11.32;8.90;;;;;;;19.18;73.65;96201.53;2064823;28;20101;-42
2022/07/23 00:36:31;;;;;;;12.45;8.82;;;;;;;19.21;73.14;96195.19;2064268;28;20054;-44
2022/07/23 00:37:33;;;;;;;12.48;9.00;;;;;;;19.31;71.80;96190.06;2056422;28;20050;-42
2022/07/23 00:38:34;;;;;;;16.58;6.95;;;;;;;19.30;70.88;96191.84;2048701;28;20058;-43
2022/07/23 00:39:35;;;;;;;9.02;6.80;;;;;;;19.45;68.74;96195.03;2056464;28;20053;-42
2022/07/23 00:40:36;;;;;;;10.05;6.65;;;;;;;19.53;67.63;96204.97;2056812;28;20050;-41
2022/07/23 00:41:38;;;;;;;10.40;7.75;;;;;;;19.60;67.20;96201.72;2056437;28;20042;-42
2022/07/23 00:42:39;;;;;;;10.10;6.95;;;;;;;19.75;66.17;96209.38;2056094;28;20043;-43
2022/07/23 00:43:40;;;;;;;9.00;7.20;;;;;;;19.64;68.38;96217.28;2056256;28;20219;-41
2022/07/23 00:44:42;;;;;;;9.18;7.15;;;;;;;19.59;67.24;96226.41;2064542;28;20058;-41
2022/07/23 00:45:43;;;;;;;13.35;7.22;;;;;;;19.62;67.58;96233.22;2057028;28;20051;-43
2022/07/23 00:46:47;;;;;;;7.72;6.93;;;;;;;19.71;66.15;96237.78;2056591;28;20051;-41
2022/07/23 00:47:48;;;;;;;9.73;6.32;;;;;;;19.68;65.51;96245.09;2057034;28;20054;-42
2022/07/23 00:48:49;;;;;;;10.38;6.40;;;;;;;19.77;65.07;96249.63;2064311;28;20050;-44
2022/07/23 00:49:50;;;;;;;7.65;5.95;;;;;;;19.81;64.35;96262.44;2064140;28;20041;-41
2022/07/23 00:50:52;;;;;;;9.75;6.38;;;;;;;19.88;64.75;96269.84;2064536;28;20058;-39
2022/07/23 00:51:53;;;;;;;11.20;7.03;;;;;;;19.76;66.71;96284.84;2056353;28;20042;-45
2022/07/23 00:52:54;;;;;;;10.10;6.32;;;;;;;19.43;67.35;96281.22;2040852;29;20078;-43
2022/07/23 00:53:56;;;;;;;9.85;6.95;;;;;;;19.14;70.67;96300.16;2056357;28;20046;-43
2022/07/23 00:54:57;;;;;;;15.00;7.30;;;;;;;18.97;69.74;96295.31;2064513;28;20054;-42
2022/07/23 00:55:58;;;;;;;11.82;7.10;;;;;;;18.82;70.19;96313.13;2048230;28;20047;-41
2022/07/23 00:57:00;;;;;;;7.70;6.10;;;;;;;18.70;70.32;96325.34;2056620;28;20046;-45
2022/07/23 00:58:01;;;;;;;8.93;6.63;;;;;;;18.63;71.18;96326.78;2064306;28;20408;-43
2022/07/23 00:59:02;;;;;;;10.00;6.40;;;;;;;18.76;70.23;96337.22;2055998;28;20516;-43
2022/07/23 01:00:05;;;;;;;9.70;6.80;;;;;;;18.96;69.07;96346.28;2063881;28;20050;-43
2022/07/23 01:01:07;;;;;;;8.82;7.45;;;;;;;18.77;71.96;96348.63;2055798;28;20054;-42
2022/07/23 01:02:09;;;;;;;9.75;7.57;;;;;;;18.42;77.38;96365.16;2056102;28;20042;-40
2022/07/23 01:03:10;;;;;;;10.95;8.32;;;;;;;18.28;77.97;96368.78;2064306;28;20050;-43
2022/07/23 01:04:11;;;;;;;10.80;8.27;;;;;;;18.15;78.63;96375.84;2063570;28;20046;-42
2022/07/23 01:05:13;;;;;;;13.10;8.95;;;;;;;17.97;80.99;96378.03;2056001;28;20054;-42
2022/07/23 01:06:14;;;;;;;12.07;9.60;;;;;;;17.84;83.74;96389.38;2064066;28;20046;-39
2022/07/23 01:07:16;;;;;;;13.77;10.75;;;;;;;17.67;84.73;96389.69;2048608;28;20055;-41
2022/07/23 01:08:17;;;;;;;14.98;11.50;;;;;;;17.64;87.07;96371.50;2056568;28;20392;-42
2022/07/23 01:09:18;;;;;;;17.00;13.00;;;;;;;17.66;88.09;96371.41;2064329;28;20046;-41
2022/07/23 01:10:35;;;;;;;18.38;12.60;;;;;;;17.64;88.37;96364.50;2056600;28;20042;-42
2022/07/23 01:11:37;;;;;;;24.10;13.23;;;;;;;17.61;87.90;96374.34;2058742;28;20057;-42
2022/07/23 01:12:41;;;;;;;19.60;13.90;;;;;;;17.61;88.81;96362.09;2056646;28;20042;-42
2022/07/23 01:13:42;;;;;;;17.88;14.73;;;;;;;17.58;89.22;96356.19;2057122;28;20054;-44
2022/07/23 01:14:44;;;;;;;19.90;14.23;;;;;;;17.60;89.78;96355.13;2056529;28;20050;-42
2022/07/23 01:15:45;;;;;;;18.15;13.70;;;;;;;17.59;90.74;96347.38;2064075;28;20050;-42
2022/07/23 01:16:47;;;;;;;20.20;14.15;;;;;;;17.54;89.56;96331.09;2064118;28;20053;-43
2022/07/23 01:17:48;;;;;;;22.33;14.82;;;;;;;17.57;90.98;96320.38;2048463;28;20066;-47
2022/07/23 01:18:49;;;;;;;20.25;15.07;;;;;;;17.62;89.54;96316.47;2048595;28;20436;-41
2022/07/23 01:19:51;;;;;;;21.65;14.00;;;;;;;17.58;89.95;96315.00;2063771;28;20057;-43
2022/07/23 01:20:52;;;;;;;18.55;14.02;;;;;;;17.49;89.57;96315.66;2063814;28;20109;-40
2022/07/23 01:21:53;;;;;;;20.83;15.27;;;;;;;17.42;90.23;96319.66;2056043;28;20480;-43
2022/07/23 01:22:54;;;;;;;17.50;14.23;;;;;;;17.34;89.75;96325.44;2040682;29;20091;-46
2022/07/23 01:23:56;;;;;;;23.15;15.55;;;;;;;17.35;90.49;96319.25;2040617;28;20516;-41
2022/07/23 01:24:58;;;;;;;18.65;14.38;;;;;;;17.26;91.11;96321.66;2056679;28;20397;-40
2022/07/23 01:26:01;;;;;;;16.77;13.82;;;;;;;17.24;90.88;96331.41;2047835;29;20126;-44
2022/07/23 01:27:05;;;;;;;23.38;14.75;;;;;;;17.22;91.33;96328.91;2041706;28;20063;-42
2022/07/23 01:28:06;;;;;;;19.60;14.63;;;;;;;17.25;91.38;96315.56;2048560;28;20058;-42
2022/07/23 01:29:07;;;;;;;22.90;15.70;;;;;;;17.27;91.72;96323.31;2056569;28;20055;-44
2022/07/23 01:30:09;;;;;;;23.88;16.30;;;;;;;17.25;91.91;96331.31;2048335;28;20051;-42
2022/07/23 01:31:11;;;;;;;22.05;16.05;;;;;;;17.29;92.43;96330.16;2040411;28;20056;-45
2022/07/23 01:32:12;;;;;;;21.83;16.67;;;;;;;17.32;92.35;96335.22;2047804;29;20050;-42
2022/07/23 01:33:14;;;;;;;19.67;16.00;;;;;;;17.30;92.93;96333.63;2048114;29;20051;-42
2022/07/23 01:34:15;;;;;;;24.15;17.35;;;;;;;17.26;92.89;96333.00;2048169;28;20058;-41
2022/07/23 01:35:16;;;;;;;23.42;17.52;;;;;;;17.28;93.42;96322.41;2048135;29;20047;-41
2022/07/23 01:36:18;;;;;;;22.17;16.65;;;;;;;17.25;92.87;96305.06;2040834;28;20063;-41
2022/07/23 01:37:19;;;;;;;20.95;16.52;;;;;;;17.26;92.99;96287.53;2048804;28;20059;-40
2022/07/23 01:38:21;;;;;;;19.08;15.90;;;;;;;17.20;92.76;96280.94;2056856;28;20050;-44
2022/07/23 01:39:22;;;;;;;23.70;16.98;;;;;;;17.19;93.95;96274.84;2056450;28;20516;-43
2022/07/23 01:40:25;;;;;;;25.52;17.27;;;;;;;17.16;93.75;96263.72;2055840;28;20139;-42
2022/07/23 01:41:26;;;;;;;20.63;16.70;;;;;;;17.17;93.12;96258.38;2056893;28;20548;-43
2022/07/23 01:42:28;;;;;;;24.50;16.92;;;;;;;17.15;93.48;96246.28;2056317;28;20050;-43
2022/07/23 01:43:29;;;;;;;21.60;15.43;;;;;;;17.04;93.42;96241.78;2056084;28;20034;-40
2022/07/23 01:44:30;;;;;;;23.27;17.52;;;;;;;17.08;93.75;96247.66;2048447;28;20043;-42
2022/07/23 01:45:32;;;;;;;22.30;16.98;;;;;;;17.05;93.27;96250.50;2040338;28;20062;-41
2022/07/23 01:46:33;;;;;;;18.88;16.10;;;;;;;17.02;93.19;96245.47;2048387;28;20390;-43
2022/07/23 01:47:35;;;;;;;20.67;16.45;;;;;;;17.03;93.80;96255.88;2048235;28;20046;-41
2022/07/23 01:48:36;;;;;;;23.83;17.70;;;;;;;17.02;93.47;96255.97;2048389;28;20213;-40
2022/07/23 01:49:58;;;;;;;23.33;17.00;;;;;;;16.97;93.88;96262.38;2058650;28;20058;-45
2022/07/23 01:51:12;;;;;;;21.17;17.27;;;;;;;16.94;95.11;96262.56;2064293;28;20053;-43
2022/07/23 01:52:18;;;;;;;23.63;17.65;;;;;;;16.89;93.86;96263.81;2063899;28;20046;-43
2022/07/23 01:53:24;;;;;;;20.98;16.70;;;;;;;16.91;94.89;96260.16;2064015;28;20053;-42
2022/07/23 01:54:33;;;;;;;22.67;17.30;;;;;;;16.96;95.26;96251.97;2064141;28;20046;-42
2022/07/23 01:55:35;;;;;;;21.50;18.08;;;;;;;16.96;95.52;96260.69;2064074;28;20057;-40
2022/07/23 01:56:37;;;;;;;22.30;16.88;;;;;;;16.91;94.53;96254.91;2048490;28;20500;-41
2022/07/23 01:57:38;;;;;;;21.85;17.52;;;;;;;16.92;95.66;96250.50;2056125;28;20055;-44
2022/07/23 01:58:41;;;;;;;24.33;18.05;;;;;;;16.88;95.35;96252.50;2048603;28;20058;-41
2022/07/23 01:59:42;;;;;;;24.15;19.75;;;;;;;16.87;95.06;96247.38;2040735;28;20505;-47
2022/07/23 02:00:44;;;;;;;23.80;18.52;;;;;;;16.92;95.98;96240.88;2055889;28;20070;-45
2022/07/23 02:01:46;;;;;;;21.35;18.88;;;;;;;16.89;96.14;96227.09;2047782;28;20486;-43
2022/07/23 02:02:47;;;;;;;26.05;20.55;;;;;;;16.95;96.56;96238.03;2048459;28;20054;-41
2022/07/23 02:03:48;;;;;;;23.73;19.35;;;;;;;16.88;96.20;96230.69;2063604;28;20555;-46
2022/07/23 02:04:49;;;;;;;25.13;20.42;;;;;;;16.83;96.77;96227.53;2064210;28;20058;-43
2022/07/23 02:05:52;;;;;;;23.20;18.63;;;;;;;16.83;95.85;96225.75;2056486;28;20054;-43
2022/07/23 02:06:54;;;;;;;23.00;20.10;;;;;;;16.80;95.40;96231.19;2056940;28;20042;-42
2022/07/23 02:07:55;;;;;;;24.13;19.70;;;;;;;16.74;96.10;96227.19;2064036;28;20064;-42
2022/07/23 02:08:57;;;;;;;23.55;19.38;;;;;;;16.74;95.96;96226.34;2064216;28;20050;-44
2022/07/23 02:09:58;;;;;;;25.25;19.13;;;;;;;16.70;96.00;96228.31;2056032;28;20057;-41
2022/07/23 02:10:59;;;;;;;26.65;19.17;;;;;;;16.70;95.73;96230.09;2056059;28;20444;-44
2022/07/23 02:12:00;;;;;;;23.90;19.60;;;;;;;16.74;96.36;96227.19;2063865;28;20077;-40
2022/07/23 02:13:02;;;;;;;24.42;19.92;;;;;;;16.71;96.79;96229.19;2055916;28;20043;-42
2022/07/23 02:14:04;;;;;;;27.85;21.98;;;;;;;16.69;96.72;96229.28;2055558;28;20047;-39
2022/07/23 02:15:06;;;;;;;27.92;22.42;;;;;;;16.66;97.23;96231.28;2064272;28;20046;-43
2022/07/23 02:16:07;;;;;;;28.98;22.25;;;;;;;16.61;97.56;96239.44;2055738;28;20563;-45
2022/07/23 02:17:09;;;;;;;24.23;19.63;;;;;;;16.61;97.33;96234.19;2055713;28;20676;-40
2022/07/23 02:18:10;;;;;;;25.40;20.27;;;;;;;16.64;97.21;96246.28;2055596;28;20065;-40
2022/07/23 02:19:12;;;;;;;24.35;19.67;;;;;;;16.72;96.66;96246.59;2063773;28;20173;-43
2022/07/23 02:20:14;;;;;;;27.27;21.58;;;;;;;16.73;96.61;96253.50;2056199;28;20043;-45
2022/07/23 02:21:18;;;;;;;28.10;19.42;;;;;;;16.78;96.90;96247.97;2056593;28;20054;-41
2022/07/23 02:22:19;;;;;;;24.90;20.70;;;;;;;16.75;97.03;96251.63;2071518;28;20057;-43
2022/07/23 02:23:24;;;;;;;22.42;18.92;;;;;;;16.74;96.24;96249.94;2063687;28;20513;-42
2022/07/23 02:24:25;;;;;;;22.73;18.00;;;;;;;16.62;96.50;96227.16;2048079;28;20047;-45
2022/07/23 02:25:26;;;;;;;20.95;18.25;;;;;;;16.76;96.06;96246.28;2039592;28;20058;-42
2022/07/23 02:26:34;;;;;;;21.17;18.55;;;;;;;16.79;96.34;96240.03;2040558;29;20052;-41
2022/07/23 02:27:37;;;;;;;24.52;19.15;;;;;;;16.81;96.80;96248.59;2043283;28;20051;-45
2022/07/23 02:28:40;;;;;;;22.50;19.20;;;;;;;16.85;96.78;96251.88;2055919;28;20436;-38
2022/07/23 02:29:42;;;;;;;21.80;19.38;;;;;;;16.86;96.50;96257.00;2047739;28;20047;-42
2022/07/23 02:30:43;;;;;;;23.25;19.02;;;;;;;16.86;97.57;96257.00;2040256;29;20533;-42
2022/07/23 02:31:46;;;;;;;23.83;19.42;;;;;;;16.83;96.72;96256.38;2048536;28;20044;-45
2022/07/23 02:32:47;;;;;;;24.60;19.63;;;;;;;16.85;96.67;96259.75;2055469;28;20143;-45
2022/07/23 02:33:49;;;;;;;23.88;18.90;;;;;;;16.86;97.00;96259.63;2054959;28;20123;-44
2022/07/23 02:34:52;;;;;;;24.58;19.63;;;;;;;16.84;97.38;96261.53;2048040;28;20047;-44
2022/07/23 02:35:55;;;;;;;27.33;20.30;;;;;;;16.86;97.35;96267.50;2056169;28;20645;-41
2022/07/23 02:36:56;;;;;;;25.17;19.35;;;;;;;16.90;97.01;96261.09;2056426;28;20043;-42
2022/07/23 02:37:58;;;;;;;21.85;18.70;;;;;;;16.89;95.93;96261.19;2047890;29;20055;-41
2022/07/23 02:39:01;;;;;;;23.77;19.33;;;;;;;16.90;96.19;96263.72;2048141;28;20051;-43
2022/07/23 02:40:05;;;;;;;24.52;19.35;;;;;;;16.89;96.66;96261.19;2063626;28;20497;-42
2022/07/23 02:41:09;;;;;;;27.15;20.27;;;;;;;16.89;96.83;96259.44;2055737;28;20421;-41
2022/07/23 02:42:12;;;;;;;22.58;20.20;;;;;;;16.92;97.44;96253.97;2055905;28;20648;-43
2022/07/23 02:43:13;;;;;;;24.55;19.60;;;;;;;17.02;97.33;96246.28;2055882;28;20050;-41
2022/07/23 02:44:14;;;;;;;25.35;19.25;;;;;;;17.04;97.16;96243.59;2048317;28;20409;-44
2022/07/23 02:45:18;;;;;;;24.05;19.40;;;;;;;17.02;96.45;96241.06;2048728;28;20043;-44
2022/07/23 02:46:20;;;;;;;24.15;20.30;;;;;;;16.97;96.89;96238.78;2048274;28;20055;-43
2022/07/23 02:47:21;;;;;;;20.10;17.85;;;;;;;16.98;97.16;96229.09;2024721;29;20422;-43
2022/07/23 02:48:22;;;;;;;22.52;19.02;;;;;;;17.02;97.21;96224.47;2032133;29;20128;-45
2022/07/23 02:49:24;;;;;;;22.55;19.83;;;;;;;17.04;96.63;96217.34;2048306;28;20043;-41
2022/07/23 02:50:26;;;;;;;24.42;18.40;;;;;;;17.00;96.38;96218.50;2055781;28;20051;-44
2022/07/23 02:51:30;;;;;;;19.77;17.63;;;;;;;17.00;96.36;96216.72;2055799;28;20095;-42
2022/07/23 02:52:36;;;;;;;20.58;17.42;;;;;;;16.92;95.71;96213.78;2055363;28;20050;-41
2022/07/23 02:53:37;;;;;;;18.52;16.63;;;;;;;16.96;96.23;96213.47;2056166;28;20054;-42
2022/07/23 02:54:39;;;;;;;19.55;17.45;;;;;;;16.94;96.45;96202.22;2055768;28;20054;-43
2022/07/23 02:55:40;;;;;;;20.60;17.80;;;;;;;16.95;96.51;96192.59;2047881;28;20062;-42
2022/07/23 02:56:42;;;;;;;24.75;19.10;;;;;;;16.95;96.32;96203.09;2056330;28;20051;-42
2022/07/23 02:57:43;;;;;;;23.35;19.40;;;;;;;16.89;96.45;96196.50;2055384;28;20049;-44
2022/07/23 02:58:44;;;;;;;22.27;18.67;;;;;;;16.88;96.27;96178.22;2055903;28;20058;-43
2022/07/23 02:59:45;;;;;;;20.65;18.48;;;;;;;16.89;96.29;96172.88;2047553;28;20423;-42
2022/07/23 03:00:47;;;;;;;21.35;19.02;;;;;;;16.90;96.07;96168.47;2047608;29;20051;-45
2022/07/23 03:01:48;;;;;;;23.02;18.92;;;;;;;16.92;96.53;96163.94;2048074;28;20059;-43
2022/07/23 03:02:49;;;;;;;26.65;19.05;;;;;;;16.89;96.65;96167.63;2055442;28;20054;-43
2022/07/23 03:03:51;;;;;;;24.15;19.90;;;;;;;16.85;96.18;96171.41;2047636;28;20055;-42
2022/07/23 03:04:52;;;;;;;19.63;17.27;;;;;;;16.80;97.00;96176.13;2047365;29;20051;-41
2022/07/23 03:05:53;;;;;;;24.90;18.88;;;;;;;16.84;96.17;96182.84;2039321;29;20063;-41
2022/07/23 03:06:55;;;;;;;22.13;18.75;;;;;;;16.87;96.88;96190.50;2046091;29;20151;-41
2022/07/23 03:07:56;;;;;;;21.13;18.50;;;;;;;16.86;96.48;96196.69;2047546;28;20062;-42
2022/07/23 03:08:57;;;;;;;23.48;19.88;;;;;;;16.84;96.68;96210.84;2040059;28;20043;-44
2022/07/23 03:09:59;;;;;;;22.15;19.40;;;;;;;16.82;96.90;96218.81;2056063;28;20525;-41
2022/07/23 03:11:00;;;;;;;26.35;19.80;;;;;;;16.85;97.18;96213.38;2063382;28;20452;-42
2022/07/23 03:12:01;;;;;;;23.17;18.70;;;;;;;16.89;96.96;96204.34;2055976;28;20058;-44
2022/07/23 03:13:03;;;;;;;22.95;19.52;;;;;;;16.91;96.98;96206.84;2049351;28;20481;-46
2022/07/23 03:14:05;;;;;;;23.77;18.38;;;;;;;16.87;97.06;96211.50;2049742;28;20051;-41
2022/07/23 03:15:08;;;;;;;21.08;18.80;;;;;;;16.84;97.06;96213.47;2049803;28;20055;-42
2022/07/23 03:16:09;;;;;;;19.42;16.98;;;;;;;16.80;97.21;96212.00;2065371;28;20050;-40
2022/07/23 03:17:11;;;;;;;22.80;18.08;;;;;;;16.84;96.93;96208.22;2057797;28;20047;-42
2022/07/23 03:18:13;;;;;;;19.35;16.25;;;;;;;16.82;95.67;96205.72;2049701;28;20453;-42
2022/07/23 03:19:14;;;;;;;20.15;16.40;;;;;;;16.86;95.93;96203.72;2049587;28;20051;-45
2022/07/23 03:20:16;;;;;;;21.67;17.90;;;;;;;16.87;96.05;96200.16;2049184;28;20059;-43
2022/07/23 03:21:17;;;;;;;20.23;16.88;;;;;;;16.81;96.40;96201.41;2057266;28;20374;-40
2022/07/23 03:22:19;;;;;;;21.65;17.20;;;;;;;16.79;96.26;96205.94;2057231;28;20050;-42
2022/07/23 03:23:20;;;;;;;20.85;18.00;;;;;;;16.75;96.22;96204.41;2065023;28;20547;-43
2022/07/23 03:24:23;;;;;;;20.35;17.52;;;;;;;16.76;96.10;96208.75;2056519;28;20045;-42
2022/07/23 03:25:25;;;;;;;23.08;19.25;;;;;;;16.76;97.31;96206.94;2042014;29;20043;-41
2022/07/23 03:26:26;;;;;;;23.73;19.30;;;;;;;16.78;97.08;96203.41;2033983;29;20051;-41
2022/07/23 03:27:29;;;;;;;21.88;18.55;;;;;;;16.72;97.08;96209.88;2033724;29;20048;-42
2022/07/23 03:28:30;;;;;;;22.42;19.48;;;;;;;16.73;97.28;96207.16;2049262;28;20051;-44
2022/07/23 03:29:32;;;;;;;22.38;18.85;;;;;;;16.76;97.38;96196.47;2057272;28;20051;-40
2022/07/23 03:30:34;;;;;;;23.08;18.48;;;;;;;16.79;97.42;96200.69;2057527;28;20050;-41
2022/07/23 03:31:36;;;;;;;24.40;18.33;;;;;;;16.80;97.51;96184.00;2049313;28;20493;-39
2022/07/23 03:32:37;;;;;;;24.65;18.48;;;;;;;16.81;97.81;96183.03;2040981;28;20422;-41
2022/07/23 03:33:38;;;;;;;22.17;19.35;;;;;;;16.81;97.50;96182.22;2049461;28;20047;-45
2022/07/23 03:34:40;;;;;;;23.17;19.67;;;;;;;16.76;97.55;96183.34;2057071;28;20079;-42
2022/07/23 03:35:41;;;;;;;22.80;19.80;;;;;;;16.76;97.51;96187.75;2049031;29;20414;-39
2022/07/23 03:36:51;;;;;;;24.77;18.80;;;;;;;16.78;97.66;96180.63;2052744;28;20051;-41
2022/07/23 03:37:52;;;;;;;18.92;16.48;;;;;;;16.82;97.81;96183.91;2064853;28;20050;-45
2022/07/23 03:38:54;;;;;;;17.73;14.43;;;;;;;16.76;96.07;96180.72;2056764;28;20398;-42
2022/07/23 03:39:55;;;;;;;23.52;14.68;;;;;;;16.79;95.91;96176.25;2064643;28;20053;-41
2022/07/23 03:40:56;;;;;;;16.25;13.90;;;;;;;16.78;95.69;96182.41;2048908;29;20529;-43
2022/07/23 03:41:57;;;;;;;15.07;12.90;;;;;;;16.75;94.94;96188.69;2049140;28;20054;-41
2022/07/23 03:42:59;;;;;;;18.67;14.18;;;;;;;16.79;95.83;96189.38;2056401;28;20596;-42
2022/07/23 03:44:00;;;;;;;15.20;13.52;;;;;;;16.76;96.23;96190.38;2056699;28;20054;-40
2022/07/23 03:45:01;;;;;;;18.45;14.52;;;;;;;16.76;96.09;96193.00;2049308;28;20043;-43
2022/07/23 03:46:03;;;;;;;15.50;13.68;;;;;;;16.76;95.62;96193.00;2057105;28;20050;-42
2022/07/23 03:47:05;;;;;;;12.00;10.63;;;;;;;16.80;95.09;96204.13;2057293;28;20440;-42
2022/07/23 03:48:06;;;;;;;15.63;13.82;;;;;;;16.78;95.72;96203.41;2056654;28;20043;-42
2022/07/23 03:49:07;;;;;;;17.05;12.70;;;;;;;16.70;95.60;96203.88;2048874;28;20062;-42
2022/07/23 03:50:09;;;;;;;13.68;12.20;;;;;;;16.67;95.10;96204.09;2056821;28;20429;-43
2022/07/23 03:51:10;;;;;;;17.33;13.93;;;;;;;16.67;95.59;96211.97;2064716;28;20051;-43
2022/07/23 03:52:12;;;;;;;14.70;13.02;;;;;;;16.62;95.82;96206.19;2064753;28;20075;-41
2022/07/23 03:53:13;;;;;;;19.08;14.00;;;;;;;16.63;96.20;96200.03;2064708;28;20476;-43
2022/07/23 03:54:15;;;;;;;16.92;14.55;;;;;;;16.63;96.97;96197.41;2041955;28;20047;-41
2022/07/23 03:55:16;;;;;;;15.52;13.93;;;;;;;16.63;96.72;96202.66;2041602;29;20052;-42
2022/07/23 03:56:17;;;;;;;14.95;11.95;;;;;;;16.58;95.67;96202.94;2065088;28;20057;-42
2022/07/23 03:57:18;;;;;;;14.95;12.77;;;;;;;16.58;95.02;96200.34;2064807;28;20057;-41
2022/07/23 03:58:19;;;;;;;14.13;11.77;;;;;;;16.56;95.87;96202.22;2064405;28;20050;-44
2022/07/23 03:59:21;;;;;;;17.77;13.93;;;;;;;16.57;96.65;96210.91;2063953;28;20046;-42
2022/07/23 04:00:22;;;;;;;17.30;12.95;;;;;;;16.50;96.70;96207.88;2056978;28;20047;-45
2022/07/23 04:01:25;;;;;;;16.08;12.98;;;;;;;16.46;97.05;96216.88;2057492;28;20054;-43
2022/07/23 04:02:26;;;;;;;18.20;14.75;;;;;;;16.44;97.07;96218.75;2064331;28;20061;-41
2022/07/23 04:03:27;;;;;;;13.82;11.90;;;;;;;16.47;97.08;96227.28;2064276;28;20057;-41
2022/07/23 04:04:29;;;;;;;13.45;11.73;;;;;;;16.50;97.06;96229.69;2048429;29;20465;-41
2022/07/23 04:05:31;;;;;;;10.70;9.60;;;;;;;16.55;95.55;96226.75;2041785;28;20511;-42
2022/07/23 04:06:40;;;;;;;14.30;11.05;;;;;;;16.54;95.44;96230.31;2058540;28;20058;-42
2022/07/23 04:07:42;;;;;;;13.43;11.93;;;;;;;16.57;95.83;96224.03;2064492;28;20042;-41
2022/07/23 04:08:43;;;;;;;14.80;12.10;;;;;;;16.58;96.22;96230.97;2065165;28;20038;-41
2022/07/23 04:09:44;;;;;;;16.27;13.85;;;;;;;16.39;95.91;96213.84;2048264;29;20058;-44
2022/07/23 04:10:45;;;;;;;18.00;13.68;;;;;;;16.46;96.77;96233.44;2041554;28;20047;-40
2022/07/23 04:11:49;;;;;;;16.27;13.30;;;;;;;16.47;96.88;96234.31;2056639;28;20065;-43
2022/07/23 04:12:50;;;;;;;16.15;12.80;;;;;;;16.51;97.16;96223.50;2064516;28;20076;-43
2022/07/23 04:13:52;;;;;;;17.10;13.60;;;;;;;16.55;97.67;96221.53;2064986;28;20053;-40
2022/07/23 04:14:54;;;;;;;15.68;13.90;;;;;;;16.61;98.31;96215.84;2049086;28;20054;-42
2022/07/23 04:15:56;;;;;;;15.77;12.88;;;;;;;16.59;97.05;96212.50;2056827;28;20053;-43
2022/07/23 04:16:57;;;;;;;19.92;12.45;;;;;;;16.58;97.17;96207.38;2065271;28;20066;-42
2022/07/23 04:17:58;;;;;;;15.90;11.70;;;;;;;16.64;97.28;96192.03;2065867;28;20431;-43
2022/07/23 04:19:07;;;;;;;;;;;;;;;16.63;94.35;96181.69;2058706;28;20050;-42
2022/07/23 04:20:18;;;;;;;10.85;9.63;;;;;;;16.67;94.34;96178.72;2050295;28;19914;-46
2022/07/23 04:21:27;;;;;;;13.25;10.30;;;;;;;16.66;94.05;96173.59;2052853;28;20050;-47
2022/07/23 04:22:28;;;;;;;15.30;9.85;;;;;;;16.67;93.97;96170.03;2063731;28;20045;-42
2022/07/23 04:23:29;;;;;;;11.63;10.25;;;;;;;16.69;95.14;96173.38;2057127;28;20042;-42
2022/07/23 04:24:31;;;;;;;15.77;10.98;;;;;;;16.70;95.07;96177.66;2047813;28;20051;-45
2022/07/23 04:25:33;;;;;;;15.30;11.02;;;;;;;16.66;95.33;96170.97;2056711;28;20051;-45
2022/07/23 04:26:34;;;;;;;13.63;11.35;;;;;;;16.68;95.83;96171.69;2057357;28;20039;-41
2022/07/23 04:27:35;;;;;;;15.25;10.90;;;;;;;16.70;95.97;96168.00;2041639;28;20052;-39
2022/07/23 04:28:36;;;;;;;16.23;11.75;;;;;;;16.69;94.94;96165.50;2048971;29;20681;-39
2022/07/23 04:29:39;;;;;;;15.73;11.70;;;;;;;16.69;94.72;96162.91;2056118;28;20054;-46
2022/07/23 04:30:40;;;;;;;13.98;10.30;;;;;;;16.75;94.96;96155.44;2064780;28;20421;-42
2022/07/23 04:31:43;;;;;;;15.27;11.25;;;;;;;16.79;95.44;96152.66;2056568;28;20057;-44
2022/07/23 04:32:44;;;;;;;11.93;10.73;;;;;;;16.81;95.17;96148.13;2032955;29;20055;-42
2022/07/23 04:33:53;;;;;;;13.02;10.95;;;;;;;16.86;94.55;96146.00;2035919;29;20048;-45
2022/07/23 04:34:55;;;;;;;14.05;10.70;;;;;;;16.84;95.14;96143.50;2042262;28;20051;-44
2022/07/23 04:35:56;;;;;;;12.38;10.45;;;;;;;16.84;94.99;96158.38;2041120;29;20052;-42
2022/07/23 04:36:58;;;;;;;15.07;11.18;;;;;;;16.83;94.69;96151.47;2032705;29;20059;-41
2022/07/23 04:38:00;;;;;;;12.50;9.98;;;;;;;16.85;93.98;96147.81;2048667;28;20055;-43
2022/07/23 04:39:01;;;;;;;13.00;10.85;;;;;;;16.91;94.56;96147.38;2064602;28;20405;-46
2022/07/23 04:40:03;;;;;;;13.00;9.60;;;;;;;16.86;93.41;96152.09;2056249;28;20054;-43
2022/07/23 04:41:04;;;;;;;11.02;9.55;;;;;;;16.91;93.40;96149.97;2041123;28;20055;-43
2022/07/23 04:42:05;;;;;;;13.30;9.93;;;;;;;16.89;93.79;96162.41;2048401;29;20440;-44
2022/07/23 04:43:07;;;;;;;10.73;8.52;;;;;;;16.87;92.27;96161.66;2041441;29;20074;-42
2022/07/23 04:44:13;;;;;;;13.18;9.40;;;;;;;16.90;93.12;96161.44;2041704;28;20062;-43
2022/07/23 04:45:14;;;;;;;12.18;10.88;;;;;;;16.85;94.62;96160.09;2056173;28;20543;-40
2022/07/23 04:46:16;;;;;;;11.98;10.55;;;;;;;16.86;94.92;96167.81;2064456;28;20054;-43